createdAt,value
2023-04-25T00:00:40.811Z,846.87
2023-04-25T00:01:40.810Z,846.92
2023-04-25T00:02:40.889Z,846.87
2023-04-25T00:03:40.933Z,846.87
2023-04-25T00:04:40.980Z,846.90
2023-04-25T00:05:40.832Z,846.95
2023-04-25T00:06:40.746Z,846.86
2023-04-25T00:07:40.743Z,846.89
2023-04-25T00:08:40.765Z,846.85
2023-04-25T00:09:40.711Z,846.84
2023-04-25T00:10:40.708Z,846.88
2023-04-25T00:11:40.692Z,846.86
2023-04-25T00:12:40.689Z,846.88
2023-04-25T00:13:40.671Z,846.86
2023-04-25T00:14:40.670Z,846.89
2023-04-25T00:15:40.695Z,846.85
2023-04-25T00:16:40.645Z,846.83
2023-04-25T00:17:40.674Z,846.93
2023-04-25T00:18:40.611Z,846.85
2023-04-25T00:19:40.617Z,846.87
2023-04-25T00:20:40.595Z,846.83
2023-04-25T00:21:40.585Z,846.85
2023-04-25T00:22:40.584Z,846.86
2023-04-25T00:23:40.569Z,846.90
2023-04-25T00:24:40.572Z,846.90
2023-04-25T00:25:40.541Z,846.86
2023-04-25T00:26:40.555Z,846.87
2023-04-25T00:27:40.522Z,846.89
2023-04-25T00:28:40.504Z,846.96
2023-04-25T00:29:40.500Z,846.93
2023-04-25T00:30:40.487Z,846.85
2023-04-25T00:31:40.539Z,846.89
2023-04-25T00:32:40.566Z,846.90
2023-04-25T00:33:40.462Z,846.88
2023-04-25T00:34:40.451Z,846.89
2023-04-25T00:35:40.434Z,846.88
2023-04-25T00:36:40.430Z,846.85
2023-04-25T00:37:40.411Z,846.83
2023-04-25T00:38:40.426Z,846.79
2023-04-25T00:39:40.388Z,846.80
2023-04-25T00:40:40.400Z,846.78
2023-04-25T00:41:40.396Z,846.77
2023-04-25T00:42:40.362Z,846.72
2023-04-25T00:43:40.344Z,846.73
2023-04-25T00:44:40.341Z,846.73
2023-04-25T00:45:40.325Z,846.69
2023-04-25T00:46:40.362Z,846.68
2023-04-25T00:47:40.374Z,846.65
2023-04-25T00:48:40.299Z,846.69
2023-04-25T00:49:40.290Z,846.66
2023-04-25T00:50:40.278Z,846.66
2023-04-25T00:51:40.269Z,846.62
2023-04-25T00:52:40.259Z,846.64
2023-04-25T00:53:40.256Z,846.62
2023-04-25T00:54:40.247Z,846.61
2023-04-25T00:55:40.223Z,846.59
2023-04-25T00:56:40.243Z,846.57
2023-04-25T00:57:40.264Z,846.60
2023-04-25T00:58:40.189Z,846.63
2023-04-25T00:59:40.190Z,846.67
2023-04-25T01:00:40.179Z,846.64
2023-04-25T01:01:40.151Z,846.67
2023-04-25T01:02:40.378Z,846.65
2023-04-25T01:03:40.412Z,846.63
2023-04-25T01:04:40.134Z,846.64
2023-04-25T01:05:40.141Z,846.67
2023-04-25T01:06:40.103Z,846.67
2023-04-25T01:07:40.088Z,846.65
2023-04-25T01:08:40.093Z,846.62
2023-04-25T01:09:40.081Z,846.67
2023-04-25T01:10:40.065Z,846.61
2023-04-25T01:11:40.060Z,846.58
2023-04-25T01:12:40.068Z,846.64
2023-04-25T01:13:40.025Z,846.59
2023-04-25T01:14:40.068Z,846.62
2023-04-25T01:15:40.017Z,846.58
2023-04-25T01:16:40.104Z,846.60
2023-04-25T01:17:40.025Z,846.58
2023-04-25T01:18:39.983Z,846.61
2023-04-25T01:19:39.965Z,846.61
2023-04-25T01:20:39.980Z,846.61
2023-04-25T01:21:39.943Z,846.60
2023-04-25T01:22:39.940Z,846.57
2023-04-25T01:23:39.934Z,846.63
2023-04-25T01:24:39.913Z,846.67
2023-04-25T01:25:39.898Z,846.67
2023-04-25T01:26:39.888Z,846.66
2023-04-25T01:27:39.879Z,846.71
2023-04-25T01:28:39.890Z,846.69
2023-04-25T01:29:39.860Z,846.71
2023-04-25T01:30:39.841Z,846.68
2023-04-25T01:31:39.872Z,846.69
2023-04-25T01:32:39.872Z,846.68
2023-04-25T01:33:39.821Z,846.67
2023-04-25T01:34:39.810Z,846.67
2023-04-25T01:35:39.795Z,846.66
2023-04-25T01:36:39.784Z,846.64
2023-04-25T01:37:39.784Z,846.59
2023-04-25T01:38:39.767Z,846.63
2023-04-25T01:39:39.758Z,846.60
2023-04-25T01:40:39.738Z,846.57
2023-04-25T01:41:39.745Z,846.57
2023-04-25T01:42:39.717Z,846.50
2023-04-25T01:43:39.709Z,846.48
2023-04-25T01:44:39.717Z,846.47
2023-04-25T01:45:39.717Z,846.49
2023-04-25T01:46:39.744Z,846.51
2023-04-25T01:47:39.721Z,846.51
2023-04-25T01:48:39.667Z,846.55
2023-04-25T01:49:39.641Z,846.47
2023-04-25T01:50:39.635Z,846.49
2023-04-25T01:51:39.621Z,846.48
2023-04-25T01:52:39.620Z,846.52
2023-04-25T01:53:39.610Z,846.52
2023-04-25T01:54:39.594Z,846.51
2023-04-25T01:55:39.575Z,846.52
2023-04-25T01:56:39.573Z,846.48
2023-04-25T01:57:39.560Z,846.55
2023-04-25T01:58:39.542Z,846.53
2023-04-25T01:59:39.554Z,846.55
2023-04-25T02:00:39.551Z,846.59
2023-04-25T02:01:39.544Z,846.54
2023-04-25T02:02:39.752Z,846.56
2023-04-25T02:03:39.831Z,846.53
2023-04-25T02:04:39.667Z,846.55
2023-04-25T02:05:39.476Z,846.49
2023-04-25T02:06:39.471Z,846.53
2023-04-25T02:07:39.452Z,846.53
2023-04-25T02:08:39.444Z,846.55
2023-04-25T02:09:39.438Z,846.54
2023-04-25T02:10:39.417Z,846.49
2023-04-25T02:11:39.404Z,846.49
2023-04-25T02:12:39.397Z,846.47
2023-04-25T02:13:39.386Z,846.48
2023-04-25T02:14:39.392Z,846.40
2023-04-25T02:15:39.374Z,846.42
2023-04-25T02:16:39.452Z,846.40
2023-04-25T02:17:39.363Z,846.36
2023-04-25T02:18:39.338Z,846.42
2023-04-25T02:19:39.320Z,846.45
2023-04-25T02:20:39.326Z,846.41
2023-04-25T02:21:39.298Z,846.39
2023-04-25T02:22:39.291Z,846.40
2023-04-25T02:23:39.285Z,846.39
2023-04-25T02:24:39.268Z,846.42
2023-04-25T02:25:39.264Z,846.41
2023-04-25T02:26:39.316Z,846.43
2023-04-25T02:27:39.236Z,846.41
2023-04-25T02:28:39.234Z,846.36
2023-04-25T02:29:39.229Z,846.34
2023-04-25T02:30:39.211Z,846.33
2023-04-25T02:31:39.216Z,846.30
2023-04-25T02:32:39.271Z,846.31
2023-04-25T02:33:39.173Z,846.30
2023-04-25T02:34:39.163Z,846.31
2023-04-25T02:35:39.162Z,846.32
2023-04-25T02:36:39.153Z,846.25
2023-04-25T02:37:39.135Z,846.30
2023-04-25T02:38:39.119Z,846.31
2023-04-25T02:39:39.120Z,846.26
2023-04-25T02:40:39.100Z,846.26
2023-04-25T02:41:39.088Z,846.25
2023-04-25T02:42:39.069Z,846.22
2023-04-25T02:43:39.070Z,846.25
2023-04-25T02:44:39.068Z,846.24
2023-04-25T02:45:39.054Z,846.29
2023-04-25T02:46:39.933Z,846.26
2023-04-25T02:47:39.037Z,846.22
2023-04-25T02:48:39.037Z,846.27
2023-04-25T02:49:38.993Z,846.31
2023-04-25T02:50:39.005Z,846.31
2023-04-25T02:51:38.975Z,846.33
2023-04-25T02:52:38.959Z,846.33
2023-04-25T02:53:38.954Z,846.35
2023-04-25T02:54:38.944Z,846.32
2023-04-25T02:55:38.950Z,846.29
2023-04-25T02:56:38.952Z,846.31
2023-04-25T02:57:38.908Z,846.29
2023-04-25T02:58:38.898Z,846.32
2023-04-25T02:59:38.907Z,846.29
2023-04-25T03:00:38.914Z,846.25
2023-04-25T03:01:38.869Z,846.20
2023-04-25T03:02:38.983Z,846.23
2023-04-25T03:03:38.893Z,846.18
2023-04-25T03:04:38.915Z,846.10
2023-04-25T03:05:38.857Z,846.14
2023-04-25T03:06:38.810Z,846.05
2023-04-25T03:07:38.809Z,846.03
2023-04-25T03:08:38.795Z,845.98
2023-04-25T03:09:38.826Z,845.96
2023-04-25T03:10:38.777Z,845.96
2023-04-25T03:11:38.761Z,845.99
2023-04-25T03:12:38.755Z,845.94
2023-04-25T03:13:38.750Z,845.93
2023-04-25T03:14:38.727Z,845.93
2023-04-25T03:15:38.726Z,845.88
2023-04-25T03:16:38.730Z,845.90
2023-04-25T03:17:38.815Z,845.91
2023-04-25T03:18:38.692Z,845.87
2023-04-25T03:19:38.675Z,845.88
2023-04-25T03:20:38.705Z,845.91
2023-04-25T03:21:38.662Z,845.89
2023-04-25T03:22:38.657Z,845.94
2023-04-25T03:23:38.628Z,845.94
2023-04-25T03:24:38.620Z,845.91
2023-04-25T03:25:38.613Z,845.95
2023-04-25T03:26:38.608Z,845.91
2023-04-25T03:27:38.609Z,845.91
2023-04-25T03:28:38.589Z,845.91
2023-04-25T03:29:38.571Z,845.90
2023-04-25T03:30:38.571Z,845.89
2023-04-25T03:31:38.624Z,845.89
2023-04-25T03:32:38.631Z,845.87
2023-04-25T03:33:38.555Z,845.86
2023-04-25T03:34:38.537Z,845.87
2023-04-25T03:35:38.522Z,845.91
2023-04-25T03:36:41.036Z,845.93
2023-04-25T03:37:38.519Z,846.00
2023-04-25T03:38:38.483Z,845.97
2023-04-25T03:39:38.472Z,845.97
2023-04-25T03:40:38.453Z,846.02
2023-04-25T03:41:38.455Z,846.00
2023-04-25T03:42:38.427Z,845.98
2023-04-25T03:43:38.422Z,845.99
2023-04-25T03:44:38.406Z,846.01
2023-04-25T03:45:38.446Z,845.96
2023-04-25T03:46:38.391Z,845.97
2023-04-25T03:47:38.410Z,845.95
2023-04-25T03:48:38.396Z,845.98
2023-04-25T03:49:38.383Z,845.97
2023-04-25T03:50:38.350Z,845.98
2023-04-25T03:51:38.341Z,845.99
2023-04-25T03:52:38.345Z,846.03
2023-04-25T03:53:38.328Z,846.07
2023-04-25T03:54:38.310Z,846.05
2023-04-25T03:55:38.349Z,846.03
2023-04-25T03:56:38.303Z,845.97
2023-04-25T03:57:38.273Z,845.97
2023-04-25T03:58:38.274Z,845.97
2023-04-25T03:59:38.261Z,845.99
2023-04-25T04:00:38.241Z,845.92
2023-04-25T04:01:38.245Z,845.94
2023-04-25T04:02:38.599Z,845.92
2023-04-25T04:03:38.585Z,845.97
2023-04-25T04:04:38.519Z,845.86
2023-04-25T04:05:38.309Z,845.94
2023-04-25T04:06:38.229Z,845.90
2023-04-25T04:07:38.163Z,845.89
2023-04-25T04:08:38.192Z,845.89
2023-04-25T04:09:38.141Z,845.88
2023-04-25T04:10:38.160Z,845.95
2023-04-25T04:11:38.127Z,845.95
2023-04-25T04:12:38.115Z,845.94
2023-04-25T04:13:38.108Z,845.92
2023-04-25T04:14:38.089Z,845.93
2023-04-25T04:15:38.096Z,845.94
2023-04-25T04:16:38.257Z,845.94
2023-04-25T04:17:38.135Z,845.92
2023-04-25T04:18:38.051Z,845.95
2023-04-25T04:19:38.041Z,845.96
2023-04-25T04:20:38.023Z,845.95
2023-04-25T04:21:38.024Z,845.89
2023-04-25T04:22:38.012Z,845.87
2023-04-25T04:23:39.533Z,845.84
2023-04-25T04:24:38.003Z,845.80
2023-04-25T04:25:37.968Z,845.83
2023-04-25T04:26:37.968Z,845.79
2023-04-25T04:27:37.953Z,845.76
2023-04-25T04:28:37.943Z,845.74
2023-04-25T04:29:37.988Z,845.69
2023-04-25T04:30:37.921Z,845.67
2023-04-25T04:31:37.945Z,845.66
2023-04-25T04:32:37.929Z,845.66
2023-04-25T04:33:37.894Z,845.65
2023-04-25T04:34:37.888Z,845.60
2023-04-25T04:35:37.878Z,845.62
2023-04-25T04:36:37.872Z,845.59
2023-04-25T04:37:37.882Z,845.60
2023-04-25T04:38:39.153Z,845.57
2023-04-25T04:39:37.841Z,845.54
2023-04-25T04:40:37.839Z,845.52
2023-04-25T04:41:37.799Z,845.53
2023-04-25T04:42:37.796Z,845.51
2023-04-25T04:43:37.793Z,845.45
2023-04-25T04:44:37.782Z,845.48
2023-04-25T04:45:37.773Z,845.43
2023-04-25T04:46:37.786Z,845.45
2023-04-25T04:47:37.878Z,845.48
2023-04-25T04:48:37.737Z,845.43
2023-04-25T04:49:37.727Z,845.39
2023-04-25T04:50:37.713Z,845.42
2023-04-25T04:51:37.730Z,845.45
2023-04-25T04:52:37.713Z,845.39
2023-04-25T04:53:37.677Z,845.44
2023-04-25T04:54:37.679Z,845.47
2023-04-25T04:55:37.654Z,845.55
2023-04-25T04:56:37.670Z,845.55
2023-04-25T04:57:37.633Z,845.59
2023-04-25T04:58:37.664Z,845.59
2023-04-25T04:59:37.632Z,845.57
2023-04-25T05:00:37.682Z,845.63
2023-04-25T05:01:37.629Z,845.64
2023-04-25T05:02:37.749Z,845.62
2023-04-25T05:03:37.794Z,845.63
2023-04-25T05:04:37.782Z,845.63
2023-04-25T05:05:37.555Z,845.62
2023-04-25T05:06:37.544Z,845.59
2023-04-25T05:07:37.537Z,845.55
2023-04-25T05:08:37.553Z,845.56
2023-04-25T05:09:37.541Z,845.57
2023-04-25T05:10:37.500Z,845.62
2023-04-25T05:11:37.493Z,845.58
2023-04-25T05:12:37.502Z,845.62
2023-04-25T05:13:37.468Z,845.63
2023-04-25T05:14:37.472Z,845.61
2023-04-25T05:15:37.447Z,845.55
2023-04-25T05:16:37.494Z,845.51
2023-04-25T05:17:37.448Z,845.58
2023-04-25T05:18:37.412Z,845.59
2023-04-25T05:19:37.398Z,845.53
2023-04-25T05:20:37.406Z,845.46
2023-04-25T05:21:37.380Z,845.43
2023-04-25T05:22:37.395Z,845.42
2023-04-25T05:23:37.364Z,845.51
2023-04-25T05:24:37.353Z,845.49
2023-04-25T05:25:37.341Z,845.51
2023-04-25T05:26:37.336Z,845.56
2023-04-25T05:27:37.318Z,845.61
2023-04-25T05:28:37.340Z,845.63
2023-04-25T05:29:37.298Z,845.65
2023-04-25T05:30:37.286Z,845.68
2023-04-25T05:31:37.338Z,845.74
2023-04-25T05:32:37.326Z,845.75
2023-04-25T05:33:37.270Z,845.75
2023-04-25T05:34:37.238Z,845.77
2023-04-25T05:35:37.234Z,845.71
2023-04-25T05:36:37.216Z,845.71
2023-04-25T05:37:37.224Z,845.68
2023-04-25T05:38:37.223Z,845.69
2023-04-25T05:39:37.192Z,845.71
2023-04-25T05:40:37.173Z,845.65
2023-04-25T05:41:37.165Z,845.70
2023-04-25T05:42:37.148Z,845.70
2023-04-25T05:43:37.142Z,845.71
2023-04-25T05:44:37.199Z,845.70
2023-04-25T05:45:37.153Z,845.70
2023-04-25T05:46:37.187Z,845.67
2023-04-25T05:47:37.142Z,845.66
2023-04-25T05:48:37.083Z,845.64
2023-04-25T05:49:37.080Z,845.61
2023-04-25T05:50:37.084Z,845.64
2023-04-25T05:51:37.051Z,845.59
2023-04-25T05:52:37.044Z,845.60
2023-04-25T05:53:37.037Z,845.58
2023-04-25T05:54:37.021Z,845.58
2023-04-25T05:55:37.044Z,845.55
2023-04-25T05:56:37.017Z,845.59
2023-04-25T05:57:36.990Z,845.58
2023-04-25T05:58:36.975Z,845.59
2023-04-25T05:59:36.985Z,845.61
2023-04-25T06:00:37.079Z,845.55
2023-04-25T06:01:36.941Z,845.59
2023-04-25T06:02:37.078Z,845.56
2023-04-25T06:03:37.162Z,845.62
2023-04-25T06:04:37.202Z,845.61
2023-04-25T06:05:37.080Z,845.56
2023-04-25T06:06:36.884Z,845.58
2023-04-25T06:07:36.882Z,845.55
2023-04-25T06:08:36.870Z,845.50
2023-04-25T06:09:36.857Z,845.55
2023-04-25T06:10:36.841Z,845.59
2023-04-25T06:11:36.842Z,845.61
2023-04-25T06:12:36.827Z,845.59
2023-04-25T06:13:36.815Z,845.62
2023-04-25T06:14:36.807Z,845.58
2023-04-25T06:15:36.831Z,845.59
2023-04-25T06:16:36.890Z,845.58
2023-04-25T06:17:36.783Z,845.60
2023-04-25T06:18:36.765Z,845.58
2023-04-25T06:19:36.749Z,845.61
2023-04-25T06:20:36.742Z,845.55
2023-04-25T06:21:36.735Z,845.57
2023-04-25T06:22:36.715Z,845.59
2023-04-25T06:23:36.702Z,845.56
2023-04-25T06:24:36.692Z,845.55
2023-04-25T06:25:36.687Z,845.56
2023-04-25T06:26:36.724Z,845.57
2023-04-25T06:27:36.678Z,845.62
2023-04-25T06:28:36.650Z,845.61
2023-04-25T06:29:36.639Z,845.58
2023-04-25T06:30:36.625Z,845.55
2023-04-25T06:31:36.668Z,845.54
2023-04-25T06:32:36.724Z,845.50
2023-04-25T06:33:36.598Z,845.51
2023-04-25T06:34:36.597Z,845.60
2023-04-25T06:35:36.587Z,845.57
2023-04-25T06:36:36.571Z,845.58
2023-04-25T06:37:36.577Z,845.58
2023-04-25T06:38:36.561Z,845.54
2023-04-25T06:39:37.218Z,845.52
2023-04-25T06:40:36.531Z,845.56
2023-04-25T06:41:36.508Z,845.55
2023-04-25T06:42:36.501Z,845.54
2023-04-25T06:43:36.492Z,845.50
2023-04-25T06:44:36.487Z,845.51
2023-04-25T06:45:36.484Z,845.51
2023-04-25T06:46:36.495Z,845.53
2023-04-25T06:47:36.486Z,845.50
2023-04-25T06:48:36.465Z,845.48
2023-04-25T06:49:36.428Z,845.49
2023-04-25T06:50:36.416Z,845.48
2023-04-25T06:51:36.401Z,845.43
2023-04-25T06:52:36.400Z,845.46
2023-04-25T06:53:36.407Z,845.47
2023-04-25T06:54:36.370Z,845.45
2023-04-25T06:55:36.369Z,845.48
2023-04-25T06:56:36.360Z,845.44
2023-04-25T06:57:36.351Z,845.39
2023-04-25T06:58:36.345Z,845.38
2023-04-25T06:59:36.318Z,845.35
2023-04-25T07:00:36.350Z,845.36
2023-04-25T07:01:36.316Z,845.36
2023-04-25T07:02:36.397Z,845.32
2023-04-25T07:03:36.559Z,845.33
2023-04-25T07:04:36.503Z,845.29
2023-04-25T07:05:36.249Z,845.27
2023-04-25T07:06:36.261Z,845.26
2023-04-25T07:07:36.234Z,845.27
2023-04-25T07:08:36.231Z,845.26
2023-04-25T07:09:36.210Z,845.30
2023-04-25T07:10:36.209Z,845.28
2023-04-25T07:11:36.205Z,845.26
2023-04-25T07:12:36.181Z,845.27
2023-04-25T07:13:36.181Z,845.29
2023-04-25T07:14:36.158Z,845.27
2023-04-25T07:15:36.166Z,845.31
2023-04-25T07:16:36.197Z,845.28
2023-04-25T07:17:36.182Z,845.28
2023-04-25T07:18:36.109Z,845.24
2023-04-25T07:19:36.109Z,845.20
2023-04-25T07:20:36.130Z,845.27
2023-04-25T07:21:36.083Z,845.22
2023-04-25T07:22:36.082Z,845.22
2023-04-25T07:23:36.039Z,845.19
2023-04-25T07:24:36.048Z,845.16
2023-04-25T07:25:36.018Z,845.16
2023-04-25T07:26:36.032Z,845.16
2023-04-25T07:27:35.997Z,845.20
2023-04-25T07:28:35.996Z,845.17
2023-04-25T07:29:35.973Z,845.15
2023-04-25T07:30:35.982Z,845.18
2023-04-25T07:31:35.996Z,845.18
2023-04-25T07:32:36.056Z,845.19
2023-04-25T07:33:35.942Z,845.21
2023-04-25T07:34:35.925Z,845.14
2023-04-25T07:35:35.930Z,845.10
2023-04-25T07:36:35.928Z,845.13
2023-04-25T07:37:35.892Z,845.13
2023-04-25T07:38:35.906Z,845.14
2023-04-25T07:39:35.865Z,845.16
2023-04-25T07:40:35.857Z,845.13
2023-04-25T07:41:35.880Z,845.12
2023-04-25T07:42:35.887Z,845.14
2023-04-25T07:43:35.822Z,845.12
2023-04-25T07:44:35.838Z,845.15
2023-04-25T07:45:35.897Z,845.19
2023-04-25T07:46:35.848Z,845.18
2023-04-25T07:47:35.893Z,845.18
2023-04-25T07:48:35.804Z,845.19
2023-04-25T07:49:35.800Z,845.17
2023-04-25T07:50:35.777Z,845.19
2023-04-25T07:51:35.779Z,845.16
2023-04-25T07:52:35.788Z,845.14
2023-04-25T07:53:35.757Z,845.16
2023-04-25T07:54:35.732Z,845.14
2023-04-25T07:55:35.717Z,845.16
2023-04-25T07:56:49.079Z,845.12
2023-04-25T07:57:36.697Z,845.16
2023-04-25T07:58:35.683Z,845.14
2023-04-25T07:59:35.680Z,845.13
2023-04-25T08:00:35.671Z,845.19
2023-04-25T08:01:35.661Z,845.16
2023-04-25T08:02:35.758Z,845.17
2023-04-25T08:03:35.813Z,845.19
2023-04-25T08:04:35.808Z,845.20
2023-04-25T08:05:35.753Z,845.18
2023-04-25T08:06:35.912Z,845.15
2023-04-25T08:07:35.588Z,845.20
2023-04-25T08:08:35.636Z,845.19
2023-04-25T08:09:35.571Z,845.17
2023-04-25T08:10:35.572Z,845.20
2023-04-25T08:11:35.542Z,845.18
2023-04-25T08:12:35.533Z,845.15
2023-04-25T08:13:35.522Z,845.13
2023-04-25T08:14:35.529Z,845.18
2023-04-25T08:15:35.528Z,845.18
2023-04-25T08:16:35.487Z,845.13
2023-04-25T08:17:35.493Z,845.14
2023-04-25T08:18:35.471Z,845.16
2023-04-25T08:19:35.476Z,845.20
2023-04-25T08:20:35.447Z,845.13
2023-04-25T08:21:35.447Z,845.18
2023-04-25T08:22:35.436Z,845.19
2023-04-25T08:23:35.439Z,845.19
2023-04-25T08:24:37.134Z,845.24
2023-04-25T08:25:35.393Z,845.22
2023-04-25T08:26:35.402Z,845.19
2023-04-25T08:27:35.372Z,845.19
2023-04-25T08:28:35.376Z,845.13
2023-04-25T08:29:35.360Z,845.16
2023-04-25T08:30:35.357Z,845.16
2023-04-25T08:31:35.413Z,845.17
2023-04-25T08:32:35.467Z,845.14
2023-04-25T08:33:35.361Z,845.15
2023-04-25T08:34:35.319Z,845.17
2023-04-25T08:35:35.319Z,845.18
2023-04-25T08:36:39.866Z,845.19
2023-04-25T08:37:36.271Z,845.20
2023-04-25T08:38:35.268Z,845.18
2023-04-25T08:39:35.277Z,845.26
2023-04-25T08:40:35.258Z,845.24
2023-04-25T08:41:35.229Z,845.25
2023-04-25T08:42:35.209Z,845.25
2023-04-25T08:43:35.238Z,845.28
2023-04-25T08:44:35.206Z,845.29
2023-04-25T08:45:35.189Z,845.31
2023-04-25T08:46:35.217Z,845.29
2023-04-25T08:47:35.175Z,845.28
2023-04-25T08:48:35.148Z,845.31
2023-04-25T08:49:35.144Z,845.30
2023-04-25T08:50:35.135Z,845.26
2023-04-25T08:51:35.118Z,845.24
2023-04-25T08:52:35.096Z,845.29
2023-04-25T08:53:36.262Z,845.32
2023-04-25T08:54:36.530Z,845.33
2023-04-25T08:55:35.066Z,845.28
2023-04-25T08:56:35.091Z,845.27
2023-04-25T08:57:35.047Z,845.28
2023-04-25T08:58:35.032Z,845.21
2023-04-25T08:59:36.562Z,845.25
2023-04-25T09:00:35.014Z,845.22
2023-04-25T09:01:35.097Z,845.28
2023-04-25T09:02:35.111Z,845.24
2023-04-25T09:03:35.068Z,845.22
2023-04-25T09:04:34.970Z,845.27
2023-04-25T09:05:34.960Z,845.34
2023-04-25T09:06:35.001Z,845.25
2023-04-25T09:07:34.931Z,845.28
2023-04-25T09:08:34.937Z,845.30
2023-04-25T09:09:34.919Z,845.29
2023-04-25T09:10:34.908Z,845.32
2023-04-25T09:11:34.892Z,845.29
2023-04-25T09:12:34.996Z,845.33
2023-04-25T09:13:34.879Z,845.34
2023-04-25T09:14:34.872Z,845.36
2023-04-25T09:15:34.845Z,845.34
2023-04-25T09:16:37.087Z,845.34
2023-04-25T09:17:34.908Z,845.35
2023-04-25T09:18:34.826Z,845.43
2023-04-25T09:19:39.709Z,845.45
2023-04-25T09:20:40.344Z,845.46
2023-04-25T09:21:35.787Z,845.48
2023-04-25T09:22:34.768Z,845.50
2023-04-25T09:23:34.759Z,845.46
2023-04-25T09:24:34.763Z,845.51
2023-04-25T09:25:34.750Z,845.55
2023-04-25T09:26:34.734Z,845.57
2023-04-25T09:27:34.711Z,845.57
2023-04-25T09:28:34.934Z,845.63
2023-04-25T09:29:34.700Z,845.64
2023-04-25T09:30:34.693Z,845.68
2023-04-25T09:31:34.706Z,845.73
2023-04-25T09:32:34.869Z,845.74
2023-04-25T09:33:34.652Z,845.78
2023-04-25T09:34:34.649Z,845.78
2023-04-25T09:35:34.632Z,845.89
2023-04-25T09:36:34.786Z,845.86
2023-04-25T09:37:34.615Z,845.93
2023-04-25T09:38:34.606Z,845.96
2023-04-25T09:39:34.590Z,846.03
2023-04-25T09:40:34.586Z,846.04
2023-04-25T09:41:34.561Z,846.06
2023-04-25T09:42:34.553Z,846.15
2023-04-25T09:43:34.575Z,846.15
2023-04-25T09:44:34.585Z,846.14
2023-04-25T09:45:34.537Z,846.19
2023-04-25T09:46:34.631Z,846.19
2023-04-25T09:47:34.515Z,846.27
2023-04-25T09:48:34.492Z,846.25
2023-04-25T09:49:34.482Z,846.26
2023-04-25T09:50:34.473Z,846.28
2023-04-25T09:51:34.474Z,846.30
2023-04-25T09:52:34.445Z,846.35
2023-04-25T09:53:34.442Z,846.37
2023-04-25T09:54:34.432Z,846.38
2023-04-25T09:55:34.429Z,846.40
2023-04-25T09:56:34.451Z,846.45
2023-04-25T09:57:34.402Z,846.46
2023-04-25T09:58:34.402Z,846.50
2023-04-25T09:59:34.396Z,846.50
2023-04-25T10:00:34.400Z,846.48
2023-04-25T10:01:34.412Z,846.51
2023-04-25T10:02:34.382Z,846.51
2023-04-25T10:03:34.534Z,846.46
2023-04-25T10:04:34.386Z,846.53
2023-04-25T10:05:34.315Z,846.55
2023-04-25T10:06:34.302Z,846.50
2023-04-25T10:07:34.315Z,846.47
2023-04-25T10:08:34.279Z,846.45
2023-04-25T10:09:34.258Z,846.46
2023-04-25T10:10:34.253Z,846.48
2023-04-25T10:11:34.240Z,846.48
2023-04-25T10:12:34.313Z,846.50
2023-04-25T10:13:34.242Z,846.52
2023-04-25T10:14:34.212Z,846.52
2023-04-25T10:15:34.246Z,846.50
2023-04-25T10:16:34.295Z,846.52
2023-04-25T10:17:34.239Z,846.55
2023-04-25T10:18:34.182Z,846.58
2023-04-25T10:19:34.155Z,846.57
2023-04-25T10:20:34.153Z,846.56
2023-04-25T10:21:34.148Z,846.57
2023-04-25T10:22:34.131Z,846.58
2023-04-25T10:23:34.121Z,846.59
2023-04-25T10:24:34.113Z,846.62
2023-04-25T10:25:34.094Z,846.64
2023-04-25T10:26:34.090Z,846.59
2023-04-25T10:27:34.090Z,846.61
2023-04-25T10:28:34.070Z,846.62
2023-04-25T10:29:34.079Z,846.65
2023-04-25T10:30:34.051Z,846.64
2023-04-25T10:31:34.110Z,846.67
2023-04-25T10:32:34.048Z,846.67
2023-04-25T10:33:34.028Z,846.70
2023-04-25T10:34:33.997Z,846.69
2023-04-25T10:35:33.976Z,846.72
2023-04-25T10:36:33.995Z,846.72
2023-04-25T10:37:33.961Z,846.72
2023-04-25T10:38:33.967Z,846.68
2023-04-25T10:39:33.963Z,846.72
2023-04-25T10:40:33.960Z,846.69
2023-04-25T10:41:33.918Z,846.66
2023-04-25T10:42:33.911Z,846.66
2023-04-25T10:43:33.908Z,846.68
2023-04-25T10:44:33.901Z,846.72
2023-04-25T10:45:33.895Z,846.70
2023-04-25T10:46:33.896Z,846.66
2023-04-25T10:47:33.915Z,846.70
2023-04-25T10:48:33.864Z,846.79
2023-04-25T10:49:33.848Z,846.79
2023-04-25T10:50:33.825Z,846.81
2023-04-25T10:51:50.894Z,846.85
2023-04-25T10:52:34.811Z,846.85
2023-04-25T10:53:33.790Z,846.85
2023-04-25T10:54:33.781Z,846.80
2023-04-25T10:55:33.773Z,846.79
2023-04-25T10:56:33.759Z,846.83
2023-04-25T10:57:33.752Z,846.86
2023-04-25T10:58:33.737Z,846.80
2023-04-25T10:59:33.733Z,846.82
2023-04-25T11:00:38.500Z,846.82
2023-04-25T11:01:34.715Z,846.73
2023-04-25T11:02:33.804Z,846.72
2023-04-25T11:03:33.864Z,846.72
2023-04-25T11:04:33.879Z,846.69
2023-04-25T11:05:36.260Z,846.75
2023-04-25T11:06:34.662Z,846.71
2023-04-25T11:07:33.656Z,846.71
2023-04-25T11:08:33.630Z,846.68
2023-04-25T11:09:33.621Z,846.68
2023-04-25T11:10:33.604Z,846.69
2023-04-25T11:11:33.613Z,846.71
2023-04-25T11:12:33.581Z,846.70
2023-04-25T11:13:33.572Z,846.68
2023-04-25T11:14:33.562Z,846.70
2023-04-25T11:15:33.580Z,846.66
2023-04-25T11:16:33.572Z,846.69
2023-04-25T11:17:33.652Z,846.63
2023-04-25T11:18:33.513Z,846.62
2023-04-25T11:19:33.531Z,846.58
2023-04-25T11:20:33.531Z,846.55
2023-04-25T11:21:33.501Z,846.55
2023-04-25T11:22:33.484Z,846.53
2023-04-25T11:23:33.467Z,846.52
2023-04-25T11:24:33.458Z,846.44
2023-04-25T11:25:34.431Z,846.50
2023-04-25T11:26:33.462Z,846.46
2023-04-25T11:27:33.438Z,846.45
2023-04-25T11:28:33.420Z,846.46
2023-04-25T11:29:33.405Z,846.45
2023-04-25T11:30:33.388Z,846.46
2023-04-25T11:31:33.398Z,846.50
2023-04-25T11:32:33.597Z,846.50
2023-04-25T11:33:33.458Z,846.52
2023-04-25T11:34:33.357Z,846.53
2023-04-25T11:35:33.336Z,846.57
2023-04-25T11:36:33.528Z,846.59
2023-04-25T11:37:33.310Z,846.59
2023-04-25T11:38:33.299Z,846.59
2023-04-25T11:39:33.319Z,846.59
2023-04-25T11:40:33.280Z,846.63
2023-04-25T11:41:33.272Z,846.58
2023-04-25T11:42:33.268Z,846.54
2023-04-25T11:43:33.322Z,846.55
2023-04-25T11:44:33.242Z,846.57
2023-04-25T11:45:33.337Z,846.59
2023-04-25T11:46:33.357Z,846.56
2023-04-25T11:47:33.340Z,846.58
2023-04-25T11:48:33.197Z,846.58
2023-04-25T11:49:33.194Z,846.62
2023-04-25T11:50:33.179Z,846.59
2023-04-25T11:51:33.180Z,846.63
2023-04-25T11:52:33.179Z,846.57
2023-04-25T11:53:33.140Z,846.64
2023-04-25T11:54:33.133Z,846.70
2023-04-25T11:55:33.137Z,846.68
2023-04-25T11:56:33.105Z,846.66
2023-04-25T11:57:33.112Z,846.64
2023-04-25T11:58:33.087Z,846.70
2023-04-25T11:59:33.082Z,846.69
2023-04-25T12:00:33.067Z,846.74
2023-04-25T12:01:35.012Z,846.75
2023-04-25T12:02:33.196Z,846.77
2023-04-25T12:03:33.250Z,846.74
2023-04-25T12:04:33.338Z,846.68
2023-04-25T12:05:34.121Z,846.70
2023-04-25T12:06:33.017Z,846.69
2023-04-25T12:07:33.003Z,846.69
2023-04-25T12:08:33.022Z,846.75
2023-04-25T12:09:32.976Z,846.70
2023-04-25T12:10:32.984Z,846.72
2023-04-25T12:11:32.965Z,846.69
2023-04-25T12:12:32.944Z,846.76
2023-04-25T12:13:32.931Z,846.76
2023-04-25T12:14:32.926Z,846.72
2023-04-25T12:15:32.914Z,846.71
2023-04-25T12:16:32.920Z,846.69
2023-04-25T12:17:32.923Z,846.70
2023-04-25T12:18:32.874Z,846.68
2023-04-25T12:19:32.858Z,846.69
2023-04-25T12:20:32.848Z,846.70
2023-04-25T12:21:33.394Z,846.67
2023-04-25T12:22:32.850Z,846.71
2023-04-25T12:23:32.819Z,846.67
2023-04-25T12:24:32.877Z,846.68
2023-04-25T12:25:32.797Z,846.67
2023-04-25T12:26:32.806Z,846.66
2023-04-25T12:27:32.788Z,846.72
2023-04-25T12:28:32.772Z,846.70